Hartland Point — ZIQS6 — position and weather

sailwx.info

Track history (hours):
 
Tides and Currents Weather Stations Pressure Air Temp Water Temp Dewpoint Dewpoint Depression Visibility Wind Speed Wind Dir Waves Ship Positions

Hartland Point

Last reported at 2014-Dec-21 15:31 UTC. Time now 2014-Dec-21 15:48 UTC.
Position N 34°39' E 033°01'.

Length 193 m; draft 5.7 m.

Type: Ship. MMSI: 235505000.

Date/timePositionNaut miles runAvg speedWind from/ knotsBaromVisibWave heightAir tempDewpointWater temp
2014-Dec-21 15:31N 34°39' E 033°01'0 0.0
2014-Dec-21 14:31N 34°39' E 033°01'0 0.0
2014-Dec-21 13:33N 34°39' E 033°01'4 4.4
2014-Dec-21 12:33N 34°37' E 033°06'1313.5
2014-Dec-21 11:33N 34°25' E 032°58'1616.4
2014-Dec-21 10:33N 34°25' E 032°38'36715.8
2014-Dec-20 11:21N 34°34' E 025°13'4415.8
2014-Dec-20 08:33N 34°34' E 024°19'48715.7
2014-Dec-19 01:30N 36°17' E 014°35'1515.6
2014-Dec-19 00:33N 36°22' E 014°18'1615.5
2014-Dec-18 23:33N 36°28' E 013°60'1615.8
2014-Dec-18 22:33N 36°33' E 013°42'1716.2
2014-Dec-18 21:29N 36°40' E 013°21'  
2014-Dec-16 12:04N 36°05' W 005°11'916.4
2014-Dec-16 11:33N 36°06' W 005°22'2 2.2
2014-Dec-16 10:30N 36°08' W 005°22'0 0.0
2014-Dec-16 09:29N 36°08' W 005°22'0 0.0
2014-Dec-16 07:04N 36°08' W 005°22'0 0.3
2014-Dec-16 06:33N 36°08' W 005°22'6 5.6
2014-Dec-16 05:33N 36°02' W 005°22'20812.6
2014-Dec-15 13:04N 36°51' W 009°34'5313.6
2014-Dec-15 09:08N 37°43' W 009°50'813.9
2014-Dec-15 08:32N 37°51' W 009°53'1714.0
2014-Dec-15 07:22N 38°07' W 009°57'1113.7
2014-Dec-15 06:33N 38°18' W 010°00'1313.5
2014-Dec-15 05:34N 38°31' W 010°04'1413.3
2014-Dec-15 04:33N 38°44' W 010°07'1313.4
2014-Dec-15 03:34N 38°58' W 010°07'1413.5
2014-Dec-15 02:32N 39°11' W 010°07'  
2014-Dec-12 15:29N 50°23' W 001°56'1311.3
2014-Dec-12 14:19N 50°34' W 001°43'811.1
2014-Dec-12 13:33N 50°41' W 001°35'7 6.3
2014-Dec-12 12:22N 50°44' W 001°25'0 0.0
2014-Dec-12 11:25N 50°44' W 001°25'0 0.0
2014-Dec-12 09:33N 50°44' W 001°25'0 0.0
2014-Dec-12 08:26N 50°44' W 001°25'0 0.0
2014-Dec-12 07:32N 50°44' W 001°25'0 0.0
2014-Dec-12 06:32N 50°44' W 001°25'0 0.0
2014-Dec-12 05:31N 50°44' W 001°25'0 0.0
2014-Dec-12 04:31N 50°44' W 001°25'0 0.0
2014-Dec-12 03:30N 50°44' W 001°25'0 0.0
2014-Dec-12 02:30N 50°44' W 001°25'0 0.0
2014-Dec-12 01:32N 50°44' W 001°25'0 0.0
2014-Dec-12 00:32N 50°44' W 001°25'0 0.0
2014-Dec-11 23:29N 50°44' W 001°25'0 0.0
2014-Dec-11 22:28N 50°44' W 001°25'0 0.0
2014-Dec-11 21:28N 50°44' W 001°25'0 0.0
2014-Dec-11 20:30N 50°44' W 001°25'0 0.0
2014-Dec-11 19:33N 50°44' W 001°25'0 0.1
2014-Dec-11 18:26N 50°44' W 001°25'0 0.2
2014-Dec-11 17:32N 50°44' W 001°25'0 0.0
2014-Dec-11 16:32N 50°44' W 001°25'0 0.0
2014-Dec-11 15:31N 50°44' W 001°25'  
Track history (hours):
 
Tides and Currents Weather Stations Pressure Air Temp Water Temp Dewpoint Dewpoint Depression Visibility Wind Speed Wind Dir Waves Ship Positions

Hartland Point

Last reported at 2014-Dec-21 15:31 UTC. Time now 2014-Dec-21 15:48 UTC.
Position N 34°39' E 033°01'.

Length 193 m; draft 5.7 m.

Type: Ship. MMSI: 235505000.

Date/timePositionNaut miles runAvg speedWind from/ knotsBaromVisibWave heightAir tempDewpointWater temp
2014-Dec-21 15:31N 34°39' E 033°01'0 0.0
2014-Dec-21 14:31N 34°39' E 033°01'0 0.0
2014-Dec-21 13:33N 34°39' E 033°01'4 4.4
2014-Dec-21 12:33N 34°37' E 033°06'1313.5
2014-Dec-21 11:33N 34°25' E 032°58'1616.4
2014-Dec-21 10:33N 34°25' E 032°38'36715.8
2014-Dec-20 11:21N 34°34' E 025°13'4415.8
2014-Dec-20 08:33N 34°34' E 024°19'48715.7
2014-Dec-19 01:30N 36°17' E 014°35'1515.6
2014-Dec-19 00:33N 36°22' E 014°18'1615.5
2014-Dec-18 23:33N 36°28' E 013°60'1615.8
2014-Dec-18 22:33N 36°33' E 013°42'1716.2
2014-Dec-18 21:29N 36°40' E 013°21'  
2014-Dec-16 12:04N 36°05' W 005°11'916.4
2014-Dec-16 11:33N 36°06' W 005°22'2 2.2
2014-Dec-16 10:30N 36°08' W 005°22'0 0.0
2014-Dec-16 09:29N 36°08' W 005°22'0 0.0
2014-Dec-16 07:04N 36°08' W 005°22'0 0.3
2014-Dec-16 06:33N 36°08' W 005°22'6 5.6
2014-Dec-16 05:33N 36°02' W 005°22'20812.6
2014-Dec-15 13:04N 36°51' W 009°34'5313.6
2014-Dec-15 09:08N 37°43' W 009°50'813.9
2014-Dec-15 08:32N 37°51' W 009°53'1714.0
2014-Dec-15 07:22N 38°07' W 009°57'1113.7
2014-Dec-15 06:33N 38°18' W 010°00'1313.5
2014-Dec-15 05:34N 38°31' W 010°04'1413.3
2014-Dec-15 04:33N 38°44' W 010°07'1313.4
2014-Dec-15 03:34N 38°58' W 010°07'1413.5
2014-Dec-15 02:32N 39°11' W 010°07'  
2014-Dec-12 15:29N 50°23' W 001°56'1311.3
2014-Dec-12 14:19N 50°34' W 001°43'811.1
2014-Dec-12 13:33N 50°41' W 001°35'7 6.3
2014-Dec-12 12:22N 50°44' W 001°25'0 0.0
2014-Dec-12 11:25N 50°44' W 001°25'0 0.0
2014-Dec-12 09:33N 50°44' W 001°25'0 0.0
2014-Dec-12 08:26N 50°44' W 001°25'0 0.0
2014-Dec-12 07:32N 50°44' W 001°25'0 0.0
2014-Dec-12 06:32N 50°44' W 001°25'0 0.0
2014-Dec-12 05:31N 50°44' W 001°25'0 0.0
2014-Dec-12 04:31N 50°44' W 001°25'0 0.0
2014-Dec-12 03:30N 50°44' W 001°25'0 0.0
2014-Dec-12 02:30N 50°44' W 001°25'0 0.0
2014-Dec-12 01:32N 50°44' W 001°25'0 0.0
2014-Dec-12 00:32N 50°44' W 001°25'0 0.0
2014-Dec-11 23:29N 50°44' W 001°25'0 0.0
2014-Dec-11 22:28N 50°44' W 001°25'0 0.0
2014-Dec-11 21:28N 50°44' W 001°25'0 0.0
2014-Dec-11 20:30N 50°44' W 001°25'0 0.0
2014-Dec-11 19:33N 50°44' W 001°25'0 0.1
2014-Dec-11 18:26N 50°44' W 001°25'0 0.2
2014-Dec-11 17:32N 50°44' W 001°25'0 0.0
2014-Dec-11 16:32N 50°44' W 001°25'0 0.0
2014-Dec-11 15:31N 50°44' W 001°25'  

Dump ship's entire track history